createdAt,value
2022-12-19T00:01:33.886Z,83.65
2022-12-19T00:04:05.464Z,82.95
2022-12-19T00:06:35.919Z,80.38
2022-12-19T00:09:02.655Z,88.65
2022-12-19T00:11:30.058Z,83.05
2022-12-19T00:13:57.674Z,86.70
2022-12-19T00:16:29.689Z,81.13
2022-12-19T00:18:58.315Z,79.57
2022-12-19T00:21:27.958Z,87.60
2022-12-19T00:23:54.791Z,93.40
2022-12-19T00:26:27.047Z,83.93
2022-12-19T00:28:55.964Z,90.15
2022-12-19T00:31:25.120Z,91.13
2022-12-19T00:33:52.153Z,69.72
2022-12-19T00:36:24.281Z,80.70
2022-12-19T00:38:52.522Z,73.13
2022-12-19T00:41:35.247Z,81.15
2022-12-19T00:44:05.041Z,74.50
2022-12-19T00:46:33.346Z,80.97
2022-12-19T00:49:00.969Z,81.10
2022-12-19T00:51:31.157Z,83.00
2022-12-19T00:54:01.382Z,75.40
2022-12-19T00:56:38.000Z,80.68
2022-12-19T00:59:05.325Z,83.18
2022-12-19T01:01:34.926Z,77.00
2022-12-19T01:06:49.923Z,67.45
2022-12-19T01:09:17.718Z,92.72
2022-12-19T01:12:03.156Z,78.57
2022-12-19T01:14:29.925Z,77.65
2022-12-19T01:16:56.641Z,71.60
2022-12-19T01:19:23.472Z,78.47
2022-12-19T01:21:50.275Z,78.15
2022-12-19T01:24:19.157Z,68.47
2022-12-19T01:26:46.379Z,70.32
2022-12-19T01:29:13.137Z,82.45
2022-12-19T01:31:39.954Z,64.45
2022-12-19T01:34:06.787Z,70.72
2022-12-19T01:36:34.729Z,66.13
2022-12-19T01:39:06.409Z,74.40
2022-12-19T01:41:33.145Z,60.67
2022-12-19T01:44:03.374Z,82.97
2022-12-19T01:46:47.794Z,91.40
2022-12-19T01:49:27.242Z,81.25
2022-12-19T01:51:57.446Z,74.63
2022-12-19T01:54:29.893Z,65.60
2022-12-19T01:56:58.821Z,66.93
2022-12-19T01:59:48.540Z,72.35
2022-12-19T02:02:21.242Z,71.35
2022-12-19T02:04:48.508Z,74.20
2022-12-19T02:07:18.612Z,76.88
2022-12-19T02:09:47.665Z,83.03
2022-12-19T02:12:20.106Z,63.55
2022-12-19T02:14:48.323Z,73.55
2022-12-19T02:17:52.717Z,72.32
2022-12-19T02:20:30.079Z,74.78
2022-12-19T02:23:18.284Z,69.78
2022-12-19T02:26:12.744Z,69.22
2022-12-19T02:29:01.088Z,63.10
2022-12-19T02:31:45.489Z,74.05
2022-12-19T02:34:42.747Z,65.45
2022-12-19T02:37:21.085Z,76.47
2022-12-19T02:40:19.577Z,60.63
2022-12-19T02:42:50.665Z,65.32
2022-12-19T02:45:28.383Z,67.35
2022-12-19T02:47:58.515Z,61.10
2022-12-19T02:50:37.220Z,64.70
2022-12-19T02:53:03.897Z,59.08
2022-12-19T02:55:35.066Z,64.20
2022-12-19T02:58:31.061Z,64.45
2022-12-19T03:01:04.712Z,66.95
2022-12-19T03:04:02.794Z,67.07
2022-12-19T03:06:42.472Z,64.53
2022-12-19T03:09:20.241Z,72.57
2022-12-19T03:11:50.927Z,61.85
2022-12-19T03:14:20.768Z,66.13
2022-12-19T03:16:47.940Z,69.93
2022-12-19T03:19:16.077Z,68.85
2022-12-19T03:21:49.566Z,69.20
2022-12-19T03:24:17.914Z,72.15
2022-12-19T03:26:53.223Z,64.10
2022-12-19T03:29:31.745Z,71.80
2022-12-19T03:32:02.648Z,74.05
2022-12-19T03:34:38.311Z,70.28
2022-12-19T03:37:09.019Z,74.65
2022-12-19T03:39:36.111Z,74.93
2022-12-19T03:42:23.437Z,69.60
2022-12-19T03:44:51.649Z,61.17
2022-12-19T03:47:28.419Z,72.10
2022-12-19T03:49:55.345Z,73.00
2022-12-19T03:52:39.675Z,81.47
2022-12-19T03:55:10.771Z,74.88
2022-12-19T03:57:46.055Z,79.32
2022-12-19T04:00:16.546Z,87.13
2022-12-19T04:02:51.626Z,82.70
2022-12-19T04:05:25.279Z,76.18
2022-12-19T04:07:56.511Z,73.53
2022-12-19T04:10:26.317Z,81.25
2022-12-19T04:13:06.350Z,69.63
2022-12-19T04:15:52.775Z,79.13
2022-12-19T04:18:20.887Z,69.93
2022-12-19T04:21:01.235Z,76.47
2022-12-19T04:23:33.394Z,74.88
2022-12-19T04:26:05.272Z,79.03
2022-12-19T04:28:38.384Z,75.85
2022-12-19T04:31:06.895Z,77.85
2022-12-19T04:33:33.641Z,73.25
2022-12-19T04:36:00.483Z,76.03
2022-12-19T04:38:27.646Z,71.93
2022-12-19T04:40:54.384Z,75.38
2022-12-19T04:43:21.189Z,80.53
2022-12-19T04:45:50.610Z,72.75
2022-12-19T04:48:20.772Z,68.03
2022-12-19T04:50:47.552Z,80.10
2022-12-19T04:53:14.283Z,66.70
2022-12-19T04:55:41.278Z,77.38
2022-12-19T04:58:08.297Z,80.82
2022-12-19T05:00:35.088Z,77.75
2022-12-19T05:03:02.053Z,88.20
2022-12-19T05:05:29.091Z,77.95
2022-12-19T05:07:58.881Z,83.93
2022-12-19T05:10:25.774Z,74.47
2022-12-19T05:12:54.330Z,93.18
2022-12-19T05:15:21.097Z,64.18
2022-12-19T05:17:47.848Z,84.53
2022-12-19T05:20:14.601Z,80.90
2022-12-19T05:22:41.358Z,83.85
2022-12-19T05:25:08.615Z,91.18
2022-12-19T05:27:35.384Z,87.25
2022-12-19T05:30:02.236Z,88.45
2022-12-19T05:32:32.711Z,78.47
2022-12-19T05:34:59.645Z,82.70
2022-12-19T05:37:26.595Z,90.97
2022-12-19T05:39:53.320Z,84.05
2022-12-19T05:42:20.087Z,75.50
2022-12-19T05:44:46.886Z,84.15
2022-12-19T05:47:13.644Z,83.28
2022-12-19T05:49:40.345Z,78.72
2022-12-19T05:52:07.095Z,93.32
2022-12-19T05:54:33.841Z,83.68
2022-12-19T05:57:00.598Z,77.57
2022-12-19T05:59:27.563Z,89.43
2022-12-19T06:01:54.851Z,91.70
2022-12-19T06:04:21.692Z,80.45
2022-12-19T06:06:48.425Z,71.95
2022-12-19T06:09:15.149Z,84.55
2022-12-19T06:11:41.867Z,76.18
2022-12-19T06:14:08.741Z,79.05
2022-12-19T06:16:35.639Z,83.05
2022-12-19T06:19:02.412Z,81.65
2022-12-19T06:21:29.234Z,75.47
2022-12-19T06:23:56.105Z,73.93
2022-12-19T06:26:22.984Z,77.88
2022-12-19T06:28:51.767Z,89.13
2022-12-19T06:31:20.585Z,85.88
2022-12-19T06:33:47.525Z,71.18
2022-12-19T06:36:14.276Z,86.78
2022-12-19T06:38:41.048Z,75.82
2022-12-19T06:41:28.917Z,90.57
2022-12-19T06:44:03.828Z,85.45
2022-12-19T06:46:31.091Z,96.50
2022-12-19T06:48:58.218Z,89.45
2022-12-19T06:51:25.174Z,88.40
2022-12-19T06:53:52.534Z,86.15
2022-12-19T06:56:20.247Z,79.50
2022-12-19T06:58:47.790Z,82.30
2022-12-19T07:01:20.103Z,80.10
2022-12-19T07:03:48.342Z,93.22
2022-12-19T07:06:15.124Z,94.25
2022-12-19T07:08:42.045Z,83.95
2022-12-19T07:11:08.793Z,81.97
2022-12-19T07:13:35.587Z,74.57
2022-12-19T07:16:04.901Z,74.13
2022-12-19T07:18:36.124Z,88.57
2022-12-19T07:21:04.061Z,75.10
2022-12-19T07:23:31.231Z,86.22
2022-12-19T07:25:58.415Z,89.80
2022-12-19T07:28:25.416Z,83.45
2022-12-19T07:30:52.260Z,79.82
2022-12-19T07:33:21.623Z,72.95
2022-12-19T07:35:49.111Z,81.40
2022-12-19T07:38:15.871Z,78.20
2022-12-19T07:40:42.773Z,85.20
2022-12-19T07:43:09.591Z,78.28
2022-12-19T07:45:39.496Z,90.55
2022-12-19T07:48:07.628Z,81.15
2022-12-19T07:50:34.847Z,79.22
2022-12-19T07:53:01.927Z,98.97
2022-12-19T07:55:29.230Z,84.25
2022-12-19T07:57:56.012Z,87.45
2022-12-19T08:00:23.401Z,83.03
2022-12-19T08:02:50.287Z,98.25
2022-12-19T08:05:17.234Z,78.70
2022-12-19T08:07:44.008Z,81.88
2022-12-19T08:10:12.650Z,80.43
2022-12-19T08:12:39.696Z,75.43
2022-12-19T08:15:07.774Z,77.70
2022-12-19T08:17:35.595Z,77.82
2022-12-19T08:20:02.455Z,69.53
2022-12-19T08:22:30.228Z,72.65
2022-12-19T08:24:57.675Z,93.47
2022-12-19T08:27:25.012Z,87.10
2022-12-19T08:29:52.000Z,91.82
2022-12-19T08:32:21.289Z,94.93
2022-12-19T08:34:49.395Z,75.63
2022-12-19T08:37:16.235Z,81.57
2022-12-19T08:39:43.072Z,91.72
2022-12-19T08:42:09.863Z,83.15
2022-12-19T08:44:36.717Z,81.05
2022-12-19T08:47:03.494Z,83.13
2022-12-19T08:49:30.567Z,91.85
2022-12-19T08:51:57.501Z,92.70
2022-12-19T08:54:24.441Z,83.07
2022-12-19T08:56:52.299Z,85.93
2022-12-19T08:59:30.636Z,85.30
2022-12-19T09:02:02.260Z,79.95
2022-12-19T09:06:01.830Z,91.38
2022-12-19T09:07:17.349Z,91.30
2022-12-19T09:09:45.180Z,96.25
2022-12-19T09:12:14.252Z,96.38
2022-12-19T09:14:41.042Z,89.00
2022-12-19T09:17:07.943Z,85.93
2022-12-19T09:19:34.776Z,80.20
2022-12-19T09:22:01.696Z,81.68
2022-12-19T09:24:28.532Z,84.25
2022-12-19T09:26:55.343Z,86.30
2022-12-19T09:29:22.511Z,78.63
2022-12-19T09:31:53.877Z,84.60
2022-12-19T09:34:37.197Z,73.80
2022-12-19T09:37:16.323Z,80.75
2022-12-19T09:39:45.472Z,84.75
2022-12-19T09:42:41.192Z,77.78
2022-12-19T09:45:31.814Z,87.88
2022-12-19T09:48:01.257Z,82.30
2022-12-19T09:50:41.267Z,85.97
2022-12-19T09:53:30.355Z,85.00
2022-12-19T09:55:59.757Z,86.65
2022-12-19T09:58:40.886Z,81.32
2022-12-19T10:01:24.407Z,88.05
2022-12-19T10:04:12.297Z,75.45
2022-12-19T10:07:16.836Z,86.25
2022-12-19T10:12:45.621Z,79.60
2022-12-19T10:12:46.407Z,75.53
2022-12-19T10:15:35.678Z,77.70
2022-12-19T10:18:24.441Z,85.45
2022-12-19T10:21:06.257Z,75.28
2022-12-19T10:23:41.865Z,77.97
2022-12-19T10:26:23.364Z,77.55
2022-12-19T10:29:05.698Z,79.55
2022-12-19T10:32:04.398Z,87.60
2022-12-19T10:34:40.786Z,77.10
2022-12-19T10:37:42.126Z,80.20
2022-12-19T10:40:28.490Z,73.40
2022-12-19T10:43:25.675Z,73.50
2022-12-19T10:46:04.183Z,76.85
2022-12-19T10:48:31.724Z,89.15
2022-12-19T10:51:02.085Z,76.72
2022-12-19T10:53:33.811Z,67.40
2022-12-19T10:56:02.852Z,66.68
2022-12-19T10:58:35.505Z,64.93
2022-12-19T11:01:15.712Z,59.50
2022-12-19T11:03:46.801Z,66.32
2022-12-19T11:06:34.933Z,64.47
2022-12-19T11:09:27.858Z,79.57
2022-12-19T11:15:30.152Z,77.47
2022-12-19T11:20:13.857Z,74.10
2022-12-19T11:25:31.777Z,80.00
2022-12-19T11:29:19.481Z,66.20
2022-12-19T11:29:33.109Z,85.32
2022-12-19T11:30:43.363Z,68.70
2022-12-19T11:32:43.625Z,78.97
2022-12-19T11:35:19.834Z,79.68
2022-12-19T11:37:57.773Z,84.90
2022-12-19T11:40:49.805Z,68.72
2022-12-19T11:43:47.222Z,76.45
2022-12-19T11:46:43.995Z,64.03
2022-12-19T11:49:25.738Z,75.50
2022-12-19T11:53:03.042Z,68.05
2022-12-19T11:55:25.149Z,66.05
2022-12-19T11:57:53.179Z,65.70
2022-12-19T12:00:22.427Z,68.75
2022-12-19T12:02:49.479Z,69.72
2022-12-19T12:05:40.380Z,63.45
2022-12-19T12:11:05.309Z,67.47
2022-12-19T12:18:37.576Z,66.07
2022-12-19T12:25:13.488Z,59.13
2022-12-19T12:31:01.216Z,67.50
2022-12-19T12:31:17.510Z,69.57
2022-12-19T12:31:45.373Z,77.03
2022-12-19T12:31:46.813Z,68.78
2022-12-19T12:32:02.265Z,76.38
2022-12-19T12:35:40.778Z,59.72
2022-12-19T12:39:09.536Z,65.97
2022-12-19T12:42:05.428Z,63.55
2022-12-19T12:44:44.857Z,68.55
2022-12-19T12:47:20.506Z,66.93
2022-12-19T12:50:02.391Z,69.43
2022-12-19T12:52:45.916Z,73.03
2022-12-19T12:55:34.023Z,70.28
2022-12-19T12:58:01.025Z,90.65
2022-12-19T13:00:30.199Z,79.13
2022-12-19T13:03:03.680Z,84.90
2022-12-19T13:05:36.515Z,74.72
2022-12-19T13:08:34.980Z,72.75
2022-12-19T13:12:01.083Z,66.93
2022-12-19T13:14:39.421Z,75.68
2022-12-19T13:17:08.835Z,67.68
2022-12-19T13:19:51.776Z,67.43
2022-12-19T13:22:22.496Z,67.82
2022-12-19T13:25:00.492Z,62.03
2022-12-19T13:27:34.714Z,70.25
2022-12-19T13:30:03.568Z,69.05
2022-12-19T13:32:34.498Z,66.10
2022-12-19T13:36:56.245Z,68.47
2022-12-19T13:39:54.507Z,64.85
2022-12-19T13:41:47.984Z,73.78
2022-12-19T13:44:19.709Z,72.72
2022-12-19T13:46:46.940Z,64.60
2022-12-19T13:49:32.109Z,73.45
2022-12-19T13:52:03.697Z,65.53
2022-12-19T13:54:36.876Z,68.00
2022-12-19T13:57:09.555Z,61.47
2022-12-19T13:59:39.977Z,73.47
2022-12-19T14:02:15.258Z,66.75
2022-12-19T14:04:44.102Z,62.10
2022-12-19T14:07:40.613Z,68.18
2022-12-19T14:11:36.725Z,67.93
2022-12-19T14:13:59.392Z,60.35
2022-12-19T14:16:17.452Z,61.10
2022-12-19T14:18:49.558Z,67.05
2022-12-19T14:22:07.802Z,67.85
2022-12-19T14:24:20.942Z,73.15
2022-12-19T14:28:25.900Z,54.75
2022-12-19T14:30:28.625Z,64.95
2022-12-19T14:33:43.930Z,60.97
2022-12-19T14:36:05.844Z,63.95
2022-12-19T14:39:27.304Z,63.13
2022-12-19T14:42:01.332Z,65.28
2022-12-19T14:54:07.407Z,65.30
2022-12-19T14:54:07.606Z,65.35
2022-12-19T14:54:09.342Z,66.90
2022-12-19T14:54:34.137Z,56.72
2022-12-19T14:56:50.556Z,77.78
2022-12-19T14:59:00.628Z,86.68
2022-12-19T15:01:32.905Z,75.95
2022-12-19T15:04:52.467Z,75.88
2022-12-19T15:07:09.249Z,72.93
2022-12-19T15:11:09.051Z,72.63
2022-12-19T15:14:55.304Z,63.53
2022-12-19T15:16:07.397Z,66.53
2022-12-19T15:18:40.719Z,60.95
2022-12-19T15:21:13.198Z,65.85
2022-12-19T15:23:40.025Z,61.50
2022-12-19T15:26:16.734Z,68.55
2022-12-19T15:28:50.897Z,59.55
2022-12-19T15:31:40.221Z,74.13
2022-12-19T15:34:40.183Z,68.30
2022-12-19T15:37:13.391Z,58.85
2022-12-19T15:39:40.793Z,68.95
2022-12-19T15:42:18.312Z,68.65
2022-12-19T15:44:45.804Z,67.60
2022-12-19T15:47:28.923Z,75.70
2022-12-19T15:49:55.665Z,65.85
2022-12-19T15:52:22.570Z,84.80
2022-12-19T15:54:50.858Z,67.65
2022-12-19T15:57:38.518Z,61.33
2022-12-19T16:00:12.769Z,67.32
2022-12-19T16:05:29.705Z,74.28
2022-12-19T16:07:58.763Z,81.38
2022-12-19T16:10:26.429Z,75.57
2022-12-19T16:12:55.840Z,72.10
2022-12-19T16:15:26.596Z,70.00
2022-12-19T16:17:54.219Z,87.85
2022-12-19T16:20:28.755Z,74.50
2022-12-19T16:22:55.626Z,73.30
2022-12-19T16:25:27.392Z,85.57
2022-12-19T16:27:56.908Z,70.43
2022-12-19T16:30:27.849Z,76.80
2022-12-19T16:32:54.620Z,74.78
2022-12-19T16:35:40.628Z,78.97
2022-12-19T16:38:11.022Z,71.72
2022-12-19T16:40:38.058Z,78.75
2022-12-19T16:43:10.488Z,83.57
2022-12-19T16:45:38.055Z,80.00
2022-12-19T16:48:20.607Z,73.07
2022-12-19T16:50:48.037Z,80.15
2022-12-19T16:53:15.401Z,70.25
2022-12-19T16:55:43.150Z,75.32
2022-12-19T16:58:42.858Z,74.07
2022-12-19T17:01:10.908Z,84.55
2022-12-19T17:03:41.747Z,74.78
2022-12-19T17:06:13.932Z,83.05
2022-12-19T17:08:40.811Z,81.78
2022-12-19T17:11:24.720Z,81.18
2022-12-19T17:14:04.592Z,82.43
2022-12-19T17:16:31.833Z,70.53
2022-12-19T17:18:59.209Z,93.28
2022-12-19T17:21:26.085Z,88.40
2022-12-19T17:23:52.909Z,75.15
2022-12-19T17:26:19.713Z,82.43
2022-12-19T17:28:49.289Z,80.63
2022-12-19T17:31:24.238Z,75.28
2022-12-19T17:33:51.601Z,75.22
2022-12-19T17:36:24.884Z,69.85
2022-12-19T17:38:52.941Z,81.45
2022-12-19T17:41:19.656Z,79.55
2022-12-19T17:43:46.472Z,82.22
2022-12-19T17:46:21.986Z,94.03
2022-12-19T17:48:51.696Z,99.18
2022-12-19T17:51:20.137Z,100.10
2022-12-19T17:53:47.082Z,93.22
2022-12-19T17:56:15.521Z,103.13
2022-12-19T17:58:42.915Z,100.18
2022-12-19T18:01:28.438Z,116.45
2022-12-19T18:03:56.291Z,102.15
2022-12-19T18:06:23.104Z,107.38
2022-12-19T18:08:49.844Z,105.68
2022-12-19T18:11:25.116Z,108.10
2022-12-19T18:13:53.139Z,112.70
2022-12-19T18:16:27.094Z,96.20
2022-12-19T18:18:54.037Z,101.53
2022-12-19T18:21:25.775Z,101.78
2022-12-19T18:23:52.717Z,97.20
2022-12-19T18:26:19.535Z,98.00
2022-12-19T18:28:46.392Z,84.53
2022-12-19T18:31:31.236Z,101.05
2022-12-19T18:34:06.997Z,88.20
2022-12-19T18:36:40.576Z,83.22
2022-12-19T18:39:22.820Z,88.05
2022-12-19T18:41:50.314Z,102.90
2022-12-19T18:44:20.811Z,91.40
2022-12-19T18:46:50.030Z,92.18
2022-12-19T18:49:17.513Z,79.43
2022-12-19T18:51:47.427Z,86.47
2022-12-19T18:54:20.272Z,74.32
2022-12-19T18:56:47.352Z,76.20
2022-12-19T18:59:14.315Z,79.18
2022-12-19T19:01:44.230Z,71.97
2022-12-19T19:04:13.361Z,73.68
2022-12-19T19:06:48.581Z,77.40
2022-12-19T19:09:18.354Z,67.82
2022-12-19T19:11:45.172Z,72.72
2022-12-19T19:14:12.100Z,70.72
2022-12-19T19:16:40.027Z,84.22
2022-12-19T19:19:10.601Z,74.05
2022-12-19T19:21:38.230Z,73.28
2022-12-19T19:24:12.711Z,69.07
2022-12-19T19:26:39.665Z,74.13
2022-12-19T19:29:06.529Z,78.20
2022-12-19T19:31:38.683Z,73.68
2022-12-19T19:34:15.520Z,77.40
2022-12-19T19:36:46.525Z,77.63
2022-12-19T19:39:14.025Z,78.40
2022-12-19T19:41:40.947Z,80.18
2022-12-19T19:44:07.769Z,77.53
2022-12-19T19:46:34.662Z,84.30
2022-12-19T19:49:01.611Z,93.78
2022-12-19T19:51:29.042Z,94.32
2022-12-19T19:53:56.399Z,92.95
2022-12-19T19:56:23.203Z,96.53
2022-12-19T19:58:49.986Z,103.32
2022-12-19T20:01:16.869Z,91.93
2022-12-19T20:03:45.013Z,98.05
2022-12-19T20:06:12.188Z,90.38
2022-12-19T20:08:40.509Z,95.07
2022-12-19T20:11:08.668Z,84.70
2022-12-19T20:13:35.500Z,93.15
2022-12-19T20:16:04.244Z,98.75
2022-12-19T20:18:31.011Z,91.80
2022-12-19T20:20:57.795Z,74.70
2022-12-19T20:23:25.156Z,77.95
2022-12-19T20:25:51.968Z,82.65
2022-12-19T20:28:18.803Z,85.93
2022-12-19T20:30:45.851Z,90.75
2022-12-19T20:33:12.637Z,84.82
2022-12-19T20:35:39.350Z,81.03
2022-12-19T20:38:06.137Z,90.80
2022-12-19T20:40:32.879Z,79.13
2022-12-19T20:42:59.625Z,88.65
2022-12-19T20:45:26.406Z,93.50
2022-12-19T20:47:53.185Z,87.43
2022-12-19T20:50:19.908Z,79.20
2022-12-19T20:52:46.694Z,82.93
2022-12-19T20:55:13.794Z,81.05
2022-12-19T20:57:40.683Z,82.28
2022-12-19T21:00:11.084Z,84.78
2022-12-19T21:03:16.728Z,73.72
2022-12-19T21:05:24.629Z,93.15
2022-12-19T21:07:51.433Z,79.25
2022-12-19T21:10:18.278Z,94.05
2022-12-19T21:12:47.931Z,94.50
2022-12-19T21:15:15.518Z,99.97
2022-12-19T21:17:42.346Z,85.47
2022-12-19T21:20:10.225Z,87.47
2022-12-19T21:22:36.968Z,74.25
2022-12-19T21:25:05.080Z,77.65
2022-12-19T21:27:32.011Z,81.03
2022-12-19T21:30:00.349Z,85.10
2022-12-19T21:32:27.629Z,80.28
2022-12-19T21:34:54.510Z,76.00
2022-12-19T21:37:21.301Z,87.55
2022-12-19T21:39:48.162Z,86.43
2022-12-19T21:42:14.876Z,82.25
2022-12-19T21:44:41.601Z,86.72
2022-12-19T21:47:08.355Z,89.07
2022-12-19T21:49:35.129Z,84.60
2022-12-19T21:52:01.897Z,97.40
2022-12-19T21:54:28.620Z,91.65
2022-12-19T21:56:55.452Z,81.13
2022-12-19T21:59:22.185Z,88.80
2022-12-19T22:01:49.185Z,86.55
2022-12-19T22:04:20.830Z,81.53
2022-12-19T22:06:50.121Z,88.13
2022-12-19T22:09:21.234Z,76.53
2022-12-19T22:11:48.167Z,74.75
2022-12-19T22:14:16.274Z,72.40
2022-12-19T22:16:43.602Z,74.88
2022-12-19T22:19:14.323Z,68.65
2022-12-19T22:21:41.198Z,83.35
2022-12-19T22:24:10.787Z,78.80
2022-12-19T22:26:38.195Z,88.90
2022-12-19T22:29:14.384Z,84.95
2022-12-19T22:31:41.926Z,105.82
2022-12-19T22:34:11.867Z,91.78
2022-12-19T22:36:40.552Z,90.43
2022-12-19T22:39:12.959Z,85.03
2022-12-19T22:41:40.700Z,100.05
2022-12-19T22:44:08.562Z,82.80
2022-12-19T22:46:37.378Z,78.93
2022-12-19T22:49:07.359Z,97.65
2022-12-19T22:51:36.372Z,81.45
2022-12-19T22:54:04.310Z,90.78
2022-12-19T22:56:32.204Z,76.78
2022-12-19T22:59:01.783Z,89.70
2022-12-19T23:01:31.692Z,87.65
2022-12-19T23:04:00.203Z,91.38
2022-12-19T23:06:29.059Z,98.50
2022-12-19T23:08:55.813Z,76.50
2022-12-19T23:11:29.967Z,86.82
2022-12-19T23:13:57.022Z,84.35
2022-12-19T23:16:23.903Z,83.55
2022-12-19T23:18:50.732Z,89.65
2022-12-19T23:21:20.947Z,87.25
2022-12-19T23:23:50.060Z,80.63
2022-12-19T23:26:27.253Z,99.15
2022-12-19T23:29:03.563Z,92.38
2022-12-19T23:31:31.050Z,99.28
2022-12-19T23:33:59.042Z,102.38
2022-12-19T23:39:13.777Z,102.53
2022-12-19T23:41:40.854Z,84.65
2022-12-19T23:44:08.478Z,96.38
2022-12-19T23:46:35.737Z,100.65
2022-12-19T23:49:02.985Z,106.65
2022-12-19T23:51:30.244Z,102.40
2022-12-19T23:53:57.458Z,90.03
2022-12-19T23:56:27.415Z,94.78
2022-12-19T23:58:55.377Z,104.32
